Flight Track Log - Related Links

Times and Time Zones

All times are in EDT time to prevent confusion due to time zone crossing. See the FSR411 flight status page for this flight to view local times or setup timezone preferences in your user account.

Time Position Orientation Groundspeed Altitude Reporting Facility
EDT Latitude Longitude Course Direction KTS MPH feet Rate Location/Type
Sat 12:38:47 42.4561 -83.0544 323° Northwest 221 254 2,400  Level Cleveland Center
Sat 12:39:48 42.5064 -83.0019 38° Northeast 262 302 4,000 1,500 Climbing Cleveland Center
Sat 12:40:15 42.4939 -82.9622 113° Southeast 259 298 4,600 885 Climbing Cleveland Center
Sat 12:40:49 42.4564 -82.9386 155° Southeast 267 307 4,900 387 Climbing Cleveland Center
Sat 12:41:17 42.4247 -82.9222 159° South 268 308 5,000 98 Climbing Cleveland Center
Sat 12:41:50 42.3839 -82.9006 159° South 272 313 5,000  Level Cleveland Center
Sat 12:42:18 42.3533 -82.8856 160° South 271 312 5,000 1,279 Level Cleveland Center
Sat 12:42:51 42.3133 -82.8631 157° South 272 313 6,300 2,613 Climbing Cleveland Center
Sat 12:43:20 42.2828 -82.8483 160° South 272 313 7,700 3,099 Climbing Cleveland Center
Sat 12:44:22 42.2203 -82.8617 189° South 266 306 11,000 2,293 Climbing Cleveland Center
Sat 12:45:23 42.1711 -82.9547 235° Southwest 320 368 12,400 976 Climbing Cleveland Center
Sat 12:46:25 42.0892 -83.0167 209° Southwest 334 384 13,000 726 Climbing Cleveland Center
Sat 12:47:27 42.0078 -83.0786 209° Southwest 333 383 13,900 1,935 Climbing Cleveland Center
Sat 12:48:29 41.9239 -83.1431 210° Southwest 341 392 17,000 3,512 Climbing Cleveland Center
Sat 12:49:30 41.8236 -83.2194 210° Southwest 344 396 21,100 3,610 Climbing Cleveland Center
Sat 12:50:32 41.7356 -83.2658 201° Southwest 341 392 24,400 2,806 Climbing Cleveland Center
Sat 12:51:34 41.6489 -83.3133 202° Southwest 337 388 26,900 2,244 Climbing Cleveland Center
Sat 12:52:35 41.5594 -83.3611 202° Southwest 343 395 29,000 1,805 Climbing Cleveland Center
Sat 12:53:37 41.4700 -83.4089 202° Southwest 346 398 30,600 1,452 Climbing Cleveland Center
Sat 12:54:39 41.3797 -83.4581 202° Southwest 350 403 32,000 794 Climbing Cleveland Center
Sat 12:56:00 41.2469 -83.3900 176° South  Level FlightAware Approximate
Sat 13:03:00 40.5079 -83.3149 171° South  Level FlightAware Approximate
Sat 13:04:00 40.4028 -83.2980 177° South  Level FlightAware Approximate
Sat 13:05:27 40.2064 -83.3692 175° South 394 453 40,000  Level Indianapolis Center
Sat 13:07:00 40.0855 -83.2693 174° South  Level FlightAware Approximate
Sat 13:08:00 39.9797 -83.2597 176° South  Level FlightAware Approximate
Sat 13:09:00 39.8739 -83.2512 176° South  Level FlightAware Approximate
Sat 13:09:00 39.8340 -83.3062 175° South  Level Estimated
Sat 13:10:00 39.7680 -83.2427 176° South  Level FlightAware Approximate
Sat 13:11:00 39.6622 -83.2343 176° South  Level FlightAware Approximate
Sat 13:11:37 39.5250 -83.2939 178° South 405 466 42,200  Level Indianapolis Center
Sat 13:12:00 39.5565 -83.2233 175° South  Level FlightAware Approximate
Sat 13:15:43 39.0528 -83.2431 175° South 411 473 43,000  Level Indianapolis Center
Sat 13:16:00 39.0997 -83.1840 175° South  Level Estimated
Sat 13:16:45 38.9372 -83.2294 175° South 417 480 43,000  Level Indianapolis Center
Sat 13:17:00 38.9948 -83.1668 176° South  Level Estimated
Sat 13:17:46 38.8214 -83.2189 176° South 417 480 43,000  Level Indianapolis Center
Sat 13:18:00 38.8891 -83.1611 178° South  Level FlightAware Approximate
Sat 13:18:48 38.7067 -83.2064 175° South 413 475 43,000  Level Indianapolis Center
Sat 13:19:00 38.7835 -83.1556 178° South  Level FlightAware Approximate
Sat 13:19:50 38.5814 -83.1911 175° South 415 478 43,000  Level Indianapolis Center
Sat 13:20:00 38.6778 -83.1500 178° South  Level FlightAware Approximate
Sat 13:20:51 38.4642 -83.1794 176° South 419 482 43,000  Level Indianapolis Center
Sat 13:21:53 38.3461 -83.1681 176° South 424 488 43,000  Level Indianapolis Center
Sat 13:22:55 38.2269 -83.1556 175° South 427 491 43,000  Level Indianapolis Center
Sat 13:23:56 38.1089 -83.1422 175° South 425 489 43,000  Level Indianapolis Center
Sat 13:24:58 37.9703 -83.1286 176° South 428 493 43,000  Level Indianapolis Center
Sat 13:26:00 37.8508 -83.1150 175° South 429 494 43,000  Level Indianapolis Center
Sat 13:27:01 37.7308 -83.1031 175° South 431 496 43,000  Level Indianapolis Center
Sat 13:28:03 37.6114 -83.0911 175° South 431 496 43,000  Level Indianapolis Center
Sat 13:29:04 37.4931 -83.0797 176° South 427 491 43,000  Level Indianapolis Center
Sat 13:30:06 37.3739 -83.0675 175° South 428 493 43,000  Level Indianapolis Center
Sat 13:31:08 37.2553 -83.0544 175° South 426 490 43,000  Level Indianapolis Center
Sat 13:32:09 37.1178 -83.0411 176° South 424 488 43,000  Level Indianapolis Center
Sat 13:33:11 37.0014 -83.0300 176° South 423 487 43,000  Level Indianapolis Center
Sat 13:34:12 36.8867 -83.0181 175° South 424 488 43,000  Level Indianapolis Center
Sat 13:35:14 36.7706 -83.0061 175° South 425 489 43,000  Level Indianapolis Center
Sat 13:36:15 36.6556 -82.9936 175° South 418 481 43,000  Level Indianapolis Center
Sat 13:37:17 36.5236 -82.9806 175° South 409 471 43,000  Level Indianapolis Center
Sat 13:38:19 36.4106 -82.9675 175° South 408 470 43,000  Level Indianapolis Center
Sat 13:39:20 36.2986 -82.9575 176° South 403 464 43,000  Level Indianapolis Center
Sat 13:40:22 36.1869 -82.9453 175° South 403 464 43,000  Level Indianapolis Center
Sat 13:41:23 36.0747 -82.9358 176° South 404 465 43,000  Level Indianapolis Center
Sat 13:42:25 35.9639 -82.9233 175° South 399 459 43,000  Level Indianapolis Center
Sat 13:43:26 35.8550 -82.9139 176° South 392 451 43,000  Level Indianapolis Center
Sat 13:44:28 35.7292 -82.9014 175° South 388 447 43,000  Level Indianapolis Center
Sat 13:45:31 35.6128 -82.8917 176° South 393 452 43,000  Level Atlanta Center
Sat 13:46:31 35.5000 -82.8806 175° South 398 458 43,000  Level Atlanta Center
Sat 13:47:31 35.3933 -82.8642 173° South 406 467 43,000  Level Atlanta Center
Sat 13:48:31 35.2850 -82.8633 180° South 412 474 43,000  Level Atlanta Center
Sat 13:49:31 35.1722 -82.8469 173° South 412 474 43,000  Level Atlanta Center
Sat 13:50:31 35.0553 -82.8361 176° South 417 480 43,000  Level Atlanta Center
Sat 13:51:31 34.9381 -82.8250 176° South 417 480 43,000  Level Atlanta Center
Sat 13:52:31 34.8275 -82.8142 175° South 417 480 43,000  Level Atlanta Center
Sat 13:53:31 34.7125 -82.8056 176° South 417 480 43,000  Level Atlanta Center
Sat 13:54:31 34.5808 -82.7850 173° South 434 499 43,000  Level Atlanta Center
Sat 13:55:31 34.4703 -82.7764 176° South 423 487 43,000  Level Atlanta Center
Sat 13:56:31 34.3553 -82.7681 177° South 417 480 43,000  Level Atlanta Center
Sat 13:57:31 34.2425 -82.7547 174° South 417 480 43,000  Level Atlanta Center
Sat 13:58:31 34.1278 -82.7464 177° South 417 480 43,000 -50 Level Atlanta Center
Sat 13:59:31 34.0106 -82.7331 175° South 424 488 42,900 -650 Descending Atlanta Center
Sat 14:00:31 33.8936 -82.7250 177° South 424 488 41,700 -1,250 Descending Atlanta Center
Sat 14:01:31 33.7914 -82.7164 176° South 424 488 40,400 -1,400 Descending Atlanta Center
Sat 14:02:31 33.6722 -82.7058 176° South 424 488 38,900 -1,550 Descending Atlanta Center
Sat 14:03:31 33.5572 -82.6953 176° South 421 484 37,300 -1,550 Descending Atlanta Center
Sat 14:04:31 33.4425 -82.6844 175° South 421 484 35,800 -1,400 Descending Atlanta Center
Sat 14:05:31 33.3378 -82.6761 176° South 421 484 34,500 -1,550 Descending Atlanta Center
Sat 14:06:31 33.2000 -82.6611 175° South 421 484 32,700 -1,650 Descending Atlanta Center
Sat 14:07:31 33.0831 -82.6506 176° South 421 484 31,200 -1,350 Descending Atlanta Center
Sat 14:08:31 32.9639 -82.6400 176° South 427 491 30,000 -600 Descending Atlanta Center
Sat 14:09:31 32.8447 -82.6294 176° South 427 491 30,000  Level Atlanta Center
Sat 14:10:31 32.7256 -82.6167 175° South 427 491 30,000  Level Atlanta Center
Sat 14:11:31 32.6128 -82.6036 174° South 436 502 30,000  Level Atlanta Center
Sat 14:13:02 32.4272 -82.5897 176° South 443 510 30,000  Level Jacksonville Center
Sat 14:14:02 32.3081 -82.5781 175° South 443 510 30,000 -750 Level Jacksonville Center
Sat 14:15:02 32.1892 -82.5686 176° South 443 510 28,500 -1,950 Descending Jacksonville Center
Sat 14:16:02 32.0700 -82.5567 175° South 443 510 26,100 -1,500 Descending Jacksonville Center
Sat 14:17:02 31.9447 -82.5475 176° South 429 494 25,500 -1,000 Descending Jacksonville Center
Sat 14:18:02 31.8342 -82.5356 175° South 417 480 24,100 -750 Descending Jacksonville Center
Sat 14:19:02 31.7192 -82.5239 175° South 411 473 24,000 -850 Descending Jacksonville Center
Sat 14:20:02 31.6128 -82.5169 177° South 403 464 22,400 -1,800 Descending Jacksonville Center
Sat 14:21:02 31.5042 -82.4978 171° South 398 458 20,400 -2,000 Descending Jacksonville Center
Sat 14:22:02 31.4017 -82.4447 156° South 390 449 18,400 -1,900 Descending Jacksonville Center
Sat 14:23:02 31.3094 -82.3989 157° South 397 457 16,600 -1,750 Descending Jacksonville Center
Sat 14:24:02 31.2133 -82.3508 157° South 391 450 14,900 -1,808 Descending Jacksonville Center
Sat 14:24:15 31.1881 -82.3364 154° Southeast 368 423 14,400 -1,784 Descending Jacksonville Center
Sat 14:24:39 31.1506 -82.3172 156° South 363 418 13,800 -1,277 Descending Jacksonville Center
Sat 14:25:02 31.1192 -82.3053 162° South 379 436 13,400 -1,574 Descending Jacksonville Center
Sat 14:25:40 31.0583 -82.2717 155° Southeast 360 414 12,200 -1,400 Descending Jacksonville Center
Sat 14:26:02 31.0292 -82.2622 164° South 368 423 12,000 -197 Descending Jacksonville Center
Sat 14:26:41 30.9642 -82.2167 149° Southeast 352 405 12,000  Level Jacksonville Center
Sat 14:27:02 30.9475 -82.2022 143° Southeast 356 410 12,000 -393 Level Jacksonville Center
Sat 14:27:42 30.8867 -82.1494 143° Southeast 349 402 11,600 -700 Descending Jacksonville Center
Sat 14:28:02 30.8697 -82.1397 154° Southeast 351 404 11,300 -1,574 Descending Jacksonville Center
Sat 14:28:43 30.8133 -82.1114 157° South 282 325 10,000 -1,600 Descending Jacksonville Center
Sat 14:29:02 30.7944 -82.1017 156° South 323 372 9,700 -2,164 Descending Jacksonville Center
Sat 14:29:44 30.7442 -82.0756 156° South 273 314 7,800 -2,164 Descending Jacksonville Center
Sat 14:30:03 30.7253 -82.0661 157° South 295 339 7,500 -1,343 Descending Jacksonville Center
Sat 14:30:51 30.6603 -82.0328 156° South 281 323 6,300 -1,322 Descending Jacksonville Center
Sat 14:31:02 30.6519 -82.0281 154° Southeast 290 334 6,200 -1,607 Descending Jacksonville Center
Sat 14:31:47 30.5933 -82.0019 159° South 277 319 4,800 -1,574 Descending Jacksonville Center
Sat 14:32:03 30.5808 -81.9997 171° South 280 322 4,600 -800 Descending Jacksonville Center
Sat 14:32:47 30.5222 -81.9761 161° South 263 303 4,000 -610 Descending Jacksonville Center
Sat 14:33:02 30.5117 -81.9692 150° Southeast 274 315 4,000  Level Jacksonville Center
Sat 14:33:48 30.4550 -81.9431 158° South 266 306 4,000  Level Jacksonville Center
Sat 14:34:02 30.4425 -81.9383 162° South 269 310 4,000  Level Jacksonville Center
Sat 14:34:55 30.3714 -81.9392 181° South 267 307 4,000 -368 Level Jacksonville Center
Sat 14:35:56 30.3192 -81.9058 151° Southeast 211 243 3,300 -1,448 Descending Jacksonville Center
Sat 14:36:51 30.2853 -81.8725 140° Southeast 185 213 1,200 -2,291 Descending Jacksonville Center
Sat 14:38:00 30.2167 -81.8667 257° West  Level FlightAware Approximate
Sat 14:45:00 30.2188 -81.8772 257° West  Level Estimated
Sat 14:46:00 30.2188 -81.8772 257° West  Level Estimated

Login

Don't have an account? Register now (free) for customized features, flight alerts, and more!